createdAt,value
2023-02-06T00:00:50.740Z,101198.59
2023-02-06T00:03:17.514Z,101202.66
2023-02-06T00:05:44.115Z,101203.47
2023-02-06T00:08:10.789Z,101200.81
2023-02-06T00:10:37.380Z,101204.34
2023-02-06T00:13:03.945Z,101214.75
2023-02-06T00:15:30.589Z,101216.44
2023-02-06T00:17:57.251Z,101207.81
2023-02-06T00:20:23.912Z,101205.22
2023-02-06T00:22:50.541Z,101208.56
2023-02-06T00:25:17.277Z,101207.72
2023-02-06T00:27:43.958Z,101216.22
2023-02-06T00:30:10.767Z,101218.91
2023-02-06T00:32:37.448Z,101223.94
2023-02-06T00:35:04.246Z,101223.63
2023-02-06T00:37:30.868Z,101224.47
2023-02-06T00:39:57.505Z,101225.59
2023-02-06T00:42:24.147Z,101218.84
2023-02-06T00:44:51.048Z,101228.00
2023-02-06T00:47:17.660Z,101227.78
2023-02-06T00:49:44.264Z,101226.00
2023-02-06T00:52:11.018Z,101219.94
2023-02-06T00:54:37.724Z,101223.22
2023-02-06T00:57:04.320Z,101227.19
2023-02-06T00:59:30.981Z,101229.94
2023-02-06T01:01:57.635Z,101228.03
2023-02-06T01:04:24.248Z,101231.66
2023-02-06T01:06:51.619Z,101225.75
2023-02-06T01:09:18.200Z,101218.03
2023-02-06T01:11:45.728Z,101221.50
2023-02-06T01:14:12.390Z,101227.56
2023-02-06T01:16:39.029Z,101220.69
2023-02-06T01:19:05.638Z,101219.00
2023-02-06T01:21:32.195Z,101215.47
2023-02-06T01:23:58.849Z,101228.53
2023-02-06T01:26:27.173Z,101229.34
2023-02-06T01:28:54.151Z,101222.31
2023-02-06T01:31:25.196Z,101213.59
2023-02-06T01:33:51.866Z,101214.53
2023-02-06T01:36:19.556Z,101224.09
2023-02-06T01:38:46.459Z,101214.59
2023-02-06T01:41:13.384Z,101223.97
2023-02-06T01:43:41.484Z,101215.25
2023-02-06T01:46:08.117Z,101213.63
2023-02-06T01:48:36.393Z,101216.31
2023-02-06T01:51:03.150Z,101221.38
2023-02-06T01:53:30.057Z,101222.47
2023-02-06T01:55:56.707Z,101220.53
2023-02-06T01:58:25.564Z,101217.94
2023-02-06T02:00:52.202Z,101222.31
2023-02-06T02:03:18.890Z,101222.97
2023-02-06T02:05:45.832Z,101229.03
2023-02-06T02:08:14.184Z,101222.75
2023-02-06T02:10:40.808Z,101218.28
2023-02-06T02:13:07.544Z,101222.69
2023-02-06T02:15:46.974Z,101228.31
2023-02-06T02:18:28.872Z,101214.91
2023-02-06T02:21:06.308Z,101214.00
2023-02-06T02:23:39.335Z,101203.75
2023-02-06T02:26:26.822Z,101205.44
2023-02-06T02:28:58.611Z,101214.88
2023-02-06T02:31:33.375Z,101206.22
2023-02-06T02:34:14.717Z,101194.44
2023-02-06T02:36:45.506Z,101197.81
2023-02-06T02:39:21.340Z,101198.56
2023-02-06T02:41:51.013Z,101193.22
2023-02-06T02:44:40.331Z,101185.91
2023-02-06T02:47:07.929Z,101182.66
2023-02-06T02:49:35.018Z,101189.03
2023-02-06T02:52:01.818Z,101188.97
2023-02-06T02:54:28.872Z,101183.28
2023-02-06T02:57:01.705Z,101179.13
2023-02-06T02:59:29.439Z,101167.06
2023-02-06T03:01:57.458Z,101166.00
2023-02-06T03:04:26.026Z,101172.56
2023-02-06T03:07:04.618Z,101174.16
2023-02-06T03:09:37.495Z,101177.72
2023-02-06T03:12:11.061Z,101175.88
2023-02-06T03:14:42.448Z,101172.47
2023-02-06T03:17:10.687Z,101175.09
2023-02-06T03:19:39.311Z,101175.88
2023-02-06T03:22:06.020Z,101175.00
2023-02-06T03:24:33.424Z,101175.88
2023-02-06T03:27:01.415Z,101170.09
2023-02-06T03:29:28.644Z,101175.13
2023-02-06T03:31:55.837Z,101176.63
2023-02-06T03:34:23.797Z,101170.53
2023-02-06T03:36:50.404Z,101163.78
2023-02-06T03:39:17.002Z,101170.66
2023-02-06T03:41:43.953Z,101177.56
2023-02-06T03:44:11.183Z,101177.47
2023-02-06T03:46:37.895Z,101177.59
2023-02-06T03:49:07.400Z,101181.19
2023-02-06T03:51:35.710Z,101181.06
2023-02-06T03:54:03.224Z,101174.00
2023-02-06T03:56:40.570Z,101178.31
2023-02-06T03:59:07.104Z,101172.41
2023-02-06T04:01:33.864Z,101175.25
2023-02-06T04:04:00.443Z,101181.25
2023-02-06T04:06:27.037Z,101177.91
2023-02-06T04:08:53.817Z,101183.34
2023-02-06T04:11:20.453Z,101188.53
2023-02-06T04:13:47.064Z,101184.31
2023-02-06T04:16:15.073Z,101191.13
2023-02-06T04:18:41.670Z,101185.94
2023-02-06T04:21:08.519Z,101177.09
2023-02-06T04:23:35.086Z,101180.41
2023-02-06T04:26:01.763Z,101183.94
2023-02-06T04:28:28.545Z,101188.78
2023-02-06T04:30:55.334Z,101189.97
2023-02-06T04:33:21.945Z,101183.50
2023-02-06T04:35:49.014Z,101186.28
2023-02-06T04:38:15.767Z,101185.25
2023-02-06T04:40:42.438Z,101187.94
2023-02-06T04:43:09.099Z,101185.53
2023-02-06T04:45:36.166Z,101188.56
2023-02-06T04:48:02.898Z,101188.78
2023-02-06T04:50:31.578Z,101195.03
2023-02-06T04:52:58.507Z,101193.78
2023-02-06T04:55:25.077Z,101198.53
2023-02-06T04:57:51.723Z,101201.59
2023-02-06T05:00:18.371Z,101194.31
2023-02-06T05:02:45.142Z,101184.16
2023-02-06T05:05:11.828Z,101184.34
2023-02-06T05:07:38.460Z,101183.69
2023-02-06T05:10:05.195Z,101181.41
2023-02-06T05:12:31.791Z,101182.22
2023-02-06T05:14:58.409Z,101182.38
2023-02-06T05:17:25.171Z,101174.44
2023-02-06T05:19:51.710Z,101173.84
2023-02-06T05:22:18.285Z,101174.69
2023-02-06T05:24:44.832Z,101158.50
2023-02-06T05:27:11.475Z,101161.16
2023-02-06T05:29:38.083Z,101161.00
2023-02-06T05:32:04.865Z,101163.09
2023-02-06T05:34:31.485Z,101164.41
2023-02-06T05:36:58.103Z,101173.00
2023-02-06T05:39:25.615Z,101184.06
2023-02-06T05:41:52.302Z,101182.88
2023-02-06T05:44:19.075Z,101176.91
2023-02-06T05:46:48.475Z,101182.50
2023-02-06T05:49:15.341Z,101183.94
2023-02-06T05:51:44.493Z,101183.22
2023-02-06T05:54:11.137Z,101189.06
2023-02-06T05:56:37.770Z,101189.41
2023-02-06T05:59:04.387Z,101191.09
2023-02-06T06:01:31.095Z,101197.16
2023-02-06T06:03:57.977Z,101197.75
2023-02-06T06:06:24.674Z,101191.97
2023-02-06T06:08:51.372Z,101189.78
2023-02-06T06:11:17.941Z,101196.25
2023-02-06T06:13:44.580Z,101206.28
2023-02-06T06:16:11.180Z,101205.56
2023-02-06T06:18:37.763Z,101201.41
2023-02-06T06:21:04.559Z,101208.16
2023-02-06T06:23:31.345Z,101202.88
2023-02-06T06:25:58.034Z,101198.41
2023-02-06T06:28:24.734Z,101199.19
2023-02-06T06:30:51.399Z,101199.94
2023-02-06T06:33:18.291Z,101195.31
2023-02-06T06:35:44.874Z,101198.28
2023-02-06T06:38:11.442Z,101198.28
2023-02-06T06:40:40.026Z,101198.63
2023-02-06T06:43:06.655Z,101204.56
2023-02-06T06:45:33.465Z,101213.56
2023-02-06T06:48:00.154Z,101217.84
2023-02-06T06:50:26.760Z,101215.06
2023-02-06T06:52:53.605Z,101215.47
2023-02-06T06:55:20.732Z,101224.44
2023-02-06T06:57:47.584Z,101225.19
2023-02-06T07:00:14.884Z,101226.03
2023-02-06T07:02:41.994Z,101228.88
2023-02-06T07:05:08.827Z,101227.13
2023-02-06T07:07:35.677Z,101234.78
2023-02-06T07:10:02.270Z,101233.13
2023-02-06T07:12:29.028Z,101227.88
2023-02-06T07:14:55.752Z,101221.75
2023-02-06T07:17:22.550Z,101223.34
2023-02-06T07:19:51.720Z,101229.56
2023-02-06T07:22:19.100Z,101232.38
2023-02-06T07:24:45.768Z,101232.53
2023-02-06T07:27:12.973Z,101224.44
2023-02-06T07:29:39.844Z,101234.81
2023-02-06T07:32:06.576Z,101234.00
2023-02-06T07:34:33.175Z,101229.53
2023-02-06T07:37:00.204Z,101219.56
2023-02-06T07:39:27.632Z,101220.47
2023-02-06T07:41:54.505Z,101220.84
2023-02-06T07:44:21.111Z,101217.91
2023-02-06T07:46:48.028Z,101221.44
2023-02-06T07:49:18.659Z,101219.94
2023-02-06T07:51:45.965Z,101222.94
2023-02-06T07:54:12.812Z,101229.53
2023-02-06T07:56:39.407Z,101225.25
2023-02-06T07:59:07.138Z,101219.28
2023-02-06T08:01:34.307Z,101227.34
2023-02-06T08:04:01.547Z,101224.56
2023-02-06T08:06:28.552Z,101217.56
2023-02-06T08:08:56.543Z,101223.59
2023-02-06T08:11:25.527Z,101225.88
2023-02-06T08:13:52.198Z,101219.91
2023-02-06T08:16:20.349Z,101220.84
2023-02-06T08:18:47.246Z,101217.22
2023-02-06T08:21:15.351Z,101217.19
2023-02-06T08:23:42.482Z,101217.97
2023-02-06T08:26:10.856Z,101212.00
2023-02-06T08:28:37.876Z,101222.59
2023-02-06T08:31:12.048Z,101219.28
2023-02-06T08:33:39.417Z,101229.22
2023-02-06T08:36:06.854Z,101222.59
2023-02-06T08:38:34.206Z,101214.19
2023-02-06T08:41:00.775Z,101207.28
2023-02-06T08:43:32.829Z,101204.69
2023-02-06T08:46:00.239Z,101205.97
2023-02-06T08:48:27.626Z,101195.47
2023-02-06T08:51:04.651Z,101188.84
2023-02-06T08:53:31.557Z,101182.84
2023-02-06T08:56:02.478Z,101187.91
2023-02-06T08:58:29.428Z,101183.31
2023-02-06T09:00:56.870Z,101178.16
2023-02-06T09:03:23.471Z,101177.91
2023-02-06T09:05:51.539Z,101176.66
2023-02-06T09:08:18.281Z,101167.59
2023-02-06T09:10:45.184Z,101153.13
2023-02-06T09:13:13.676Z,101162.13
2023-02-06T09:15:43.617Z,101153.41
2023-02-06T09:18:11.114Z,101158.47
2023-02-06T09:20:41.052Z,101150.75
2023-02-06T09:23:08.341Z,101146.81
2023-02-06T09:25:37.317Z,101148.47
2023-02-06T09:28:05.854Z,101159.50
2023-02-06T09:30:32.830Z,101157.53
2023-02-06T09:33:00.647Z,101151.78
2023-02-06T09:35:27.912Z,101147.69
2023-02-06T09:37:54.834Z,101154.41
2023-02-06T09:40:24.940Z,101153.13
2023-02-06T09:42:53.819Z,101154.50
2023-02-06T09:45:26.970Z,101155.53
2023-02-06T09:47:55.582Z,101156.88
2023-02-06T09:50:52.107Z,101151.47
2023-02-06T09:53:26.396Z,101155.09
2023-02-06T09:55:56.725Z,101159.84
2023-02-06T09:58:29.196Z,101162.78
2023-02-06T10:00:59.140Z,101166.97
2023-02-06T10:03:37.809Z,101172.38
2023-02-06T10:06:12.060Z,101179.25
2023-02-06T10:08:54.518Z,101174.50
2023-02-06T10:11:25.917Z,101174.25
2023-02-06T10:13:55.529Z,101180.13
2023-02-06T10:16:37.275Z,101172.22
2023-02-06T10:19:33.574Z,101166.97
2023-02-06T10:22:06.342Z,101159.19
2023-02-06T10:24:57.827Z,101153.06
2023-02-06T10:27:32.684Z,101140.91
2023-02-06T10:30:03.278Z,101140.56
2023-02-06T10:32:42.880Z,101143.94
2023-02-06T10:35:25.542Z,101133.69
2023-02-06T10:38:19.410Z,101119.25
2023-02-06T10:41:02.984Z,101116.06
2023-02-06T10:43:36.328Z,101109.88
2023-02-06T10:46:23.404Z,101103.66
2023-02-06T10:49:16.586Z,101105.28
2023-02-06T10:51:49.616Z,101104.97
2023-02-06T10:54:19.034Z,101104.16
2023-02-06T10:56:47.120Z,101106.53
2023-02-06T10:59:18.116Z,101099.16
2023-02-06T11:01:45.499Z,101101.44
2023-02-06T11:04:16.398Z,101110.81
2023-02-06T11:06:46.845Z,101103.03
2023-02-06T11:09:15.230Z,101102.69
2023-02-06T11:11:42.882Z,101096.69
2023-02-06T11:14:20.328Z,101097.75
2023-02-06T11:16:47.842Z,101095.69
2023-02-06T11:19:19.774Z,101087.41
2023-02-06T11:21:48.307Z,101084.50
2023-02-06T11:24:16.067Z,101090.03
2023-02-06T11:26:51.624Z,101092.06
2023-02-06T11:29:26.799Z,101086.28
2023-02-06T11:31:54.901Z,101093.38
2023-02-06T11:34:31.609Z,101085.50
2023-02-06T11:37:02.772Z,101065.81
2023-02-06T11:39:32.829Z,101071.56
2023-02-06T11:42:03.823Z,101069.47
2023-02-06T11:44:41.905Z,101085.50
2023-02-06T11:47:36.089Z,101087.19
2023-02-06T11:50:22.891Z,101077.41
2023-02-06T11:52:58.212Z,101081.25
2023-02-06T11:55:26.664Z,101089.69
2023-02-06T11:58:12.094Z,101084.78
2023-02-06T12:00:48.511Z,101077.78
2023-02-06T12:03:47.404Z,101080.00
2023-02-06T12:06:21.773Z,101079.38
2023-02-06T12:08:49.599Z,101069.19
2023-02-06T12:11:23.609Z,101068.72
2023-02-06T12:13:53.461Z,101064.28
2023-02-06T12:16:20.972Z,101062.59
2023-02-06T12:18:53.518Z,101062.34
2023-02-06T12:21:22.732Z,101075.09
2023-02-06T12:23:53.009Z,101070.88
2023-02-06T12:26:20.441Z,101066.59
2023-02-06T12:28:52.862Z,101059.50
2023-02-06T12:31:43.561Z,101066.84
2023-02-06T12:34:19.518Z,101074.09
2023-02-06T12:36:53.603Z,101070.69
2023-02-06T12:39:22.334Z,101070.59
2023-02-06T12:42:12.621Z,101080.22
2023-02-06T12:44:54.192Z,101076.09
2023-02-06T12:47:25.626Z,101065.19
2023-02-06T12:49:55.464Z,101070.31
2023-02-06T12:52:24.469Z,101078.16
2023-02-06T12:54:58.199Z,101081.44
2023-02-06T12:57:28.657Z,101066.47
2023-02-06T13:00:28.580Z,101062.56
2023-02-06T13:03:15.019Z,101068.72
2023-02-06T13:05:45.495Z,101061.13
2023-02-06T13:08:29.386Z,101059.31
2023-02-06T13:11:01.871Z,101064.28
2023-02-06T13:13:53.138Z,101054.94
2023-02-06T13:16:19.895Z,101051.41
2023-02-06T13:18:52.881Z,101048.38
2023-02-06T13:21:23.810Z,101050.94
2023-02-06T13:24:11.047Z,101045.78
2023-02-06T13:27:07.179Z,101044.16
2023-02-06T13:29:34.704Z,101041.97
2023-02-06T13:32:11.204Z,101044.78
2023-02-06T13:35:04.526Z,101049.31
2023-02-06T13:37:40.796Z,101046.69
2023-02-06T13:40:35.713Z,101049.19
2023-02-06T13:43:30.936Z,101055.66
2023-02-06T13:45:59.044Z,101058.53
2023-02-06T13:48:28.893Z,101058.53
2023-02-06T13:51:19.067Z,101057.38
2023-02-06T13:53:55.376Z,101054.66
2023-02-06T13:56:35.017Z,101065.84
2023-02-06T13:59:06.895Z,101060.34
2023-02-06T14:01:33.888Z,101074.22
2023-02-06T14:04:00.779Z,101066.50
2023-02-06T14:06:47.346Z,101076.63
2023-02-06T14:09:39.944Z,101080.06
2023-02-06T14:12:35.498Z,101092.16
2023-02-06T14:15:02.337Z,101088.34
2023-02-06T14:17:47.914Z,101092.78
2023-02-06T14:20:38.317Z,101095.66
2023-02-06T14:23:25.565Z,101091.09
2023-02-06T14:25:53.709Z,101096.13
2023-02-06T14:28:44.103Z,101104.69
2023-02-06T14:31:15.272Z,101106.44
2023-02-06T14:33:52.328Z,101101.09
2023-02-06T14:36:33.871Z,101111.44
2023-02-06T14:39:22.305Z,101113.09
2023-02-06T14:41:49.761Z,101112.03
2023-02-06T14:44:19.298Z,101110.97
2023-02-06T14:46:46.137Z,101106.44
2023-02-06T14:49:17.380Z,101097.09
2023-02-06T14:51:44.533Z,101105.31
2023-02-06T14:54:31.544Z,101101.03
2023-02-06T14:56:59.088Z,101093.69
2023-02-06T14:59:26.518Z,101089.53
2023-02-06T15:01:54.361Z,101095.59
2023-02-06T15:04:22.711Z,101104.59
2023-02-06T15:07:01.274Z,101119.44
2023-02-06T15:09:32.234Z,101121.03
2023-02-06T15:12:00.345Z,101113.69
2023-02-06T15:14:29.370Z,101129.13
2023-02-06T15:17:01.954Z,101121.06
2023-02-06T15:19:30.856Z,101124.50
2023-02-06T15:22:01.395Z,101126.69
2023-02-06T15:24:36.117Z,101119.09
2023-02-06T15:27:06.324Z,101125.13
2023-02-06T15:29:33.743Z,101118.66
2023-02-06T15:32:10.311Z,101118.00
2023-02-06T15:34:39.776Z,101123.84
2023-02-06T15:37:23.296Z,101122.28
2023-02-06T15:39:51.989Z,101130.56
2023-02-06T15:42:19.034Z,101126.28
2023-02-06T15:44:47.506Z,101138.41
2023-02-06T15:47:15.168Z,101134.78
2023-02-06T15:49:44.211Z,101144.50
2023-02-06T15:52:11.967Z,101146.38
2023-02-06T15:54:42.776Z,101144.63
2023-02-06T15:57:29.615Z,101137.88
2023-02-06T16:00:00.121Z,101160.06
2023-02-06T16:02:34.500Z,101161.41
2023-02-06T16:05:01.837Z,101155.19
2023-02-06T16:07:31.010Z,101162.28
2023-02-06T16:10:16.664Z,101163.38
2023-02-06T16:12:43.502Z,101164.16
2023-02-06T16:15:29.183Z,101159.44
2023-02-06T16:17:57.117Z,101160.69
2023-02-06T16:20:33.654Z,101151.03
2023-02-06T16:23:42.428Z,101161.16
2023-02-06T16:26:26.079Z,101161.56
2023-02-06T16:28:57.414Z,101148.59
2023-02-06T16:31:28.283Z,101164.72
2023-02-06T16:33:55.777Z,101173.56
2023-02-06T16:36:23.526Z,101174.84
2023-02-06T16:39:02.797Z,101180.66
2023-02-06T16:41:33.682Z,101178.69
2023-02-06T16:44:06.014Z,101195.19
2023-02-06T16:46:33.084Z,101193.97
2023-02-06T16:49:03.749Z,101188.31
2023-02-06T16:51:30.978Z,101185.66
2023-02-06T16:53:58.272Z,101184.47
2023-02-06T16:56:28.626Z,101186.91
2023-02-06T16:58:55.658Z,101187.91
2023-02-06T17:01:26.132Z,101190.44
2023-02-06T17:03:53.410Z,101192.47
2023-02-06T17:06:23.425Z,101182.75
2023-02-06T17:08:50.442Z,101181.56
2023-02-06T17:11:17.868Z,101176.59
2023-02-06T17:13:44.708Z,101168.81
2023-02-06T17:16:16.358Z,101172.47
2023-02-06T17:18:46.727Z,101169.03
2023-02-06T17:21:14.135Z,101169.03
2023-02-06T17:23:41.226Z,101174.28
2023-02-06T17:26:15.080Z,101173.28
2023-02-06T17:28:41.788Z,101174.03
2023-02-06T17:31:09.080Z,101175.78
2023-02-06T17:33:36.420Z,101182.53
2023-02-06T17:36:05.787Z,101190.56
2023-02-06T17:38:34.673Z,101192.47
2023-02-06T17:41:02.040Z,101194.97
2023-02-06T17:43:31.550Z,101189.88
2023-02-06T17:45:58.436Z,101200.97
2023-02-06T17:48:25.672Z,101196.69
2023-02-06T17:50:52.480Z,101197.28
2023-02-06T17:53:19.547Z,101196.22
2023-02-06T17:55:47.745Z,101192.00
2023-02-06T17:58:18.933Z,101197.38
2023-02-06T18:00:52.210Z,101196.22
2023-02-06T18:03:20.146Z,101183.28
2023-02-06T18:05:55.699Z,101185.22
2023-02-06T18:08:23.031Z,101185.16
2023-02-06T18:10:49.953Z,101182.06
2023-02-06T18:13:16.595Z,101188.47
2023-02-06T18:15:48.790Z,101184.81
2023-02-06T18:18:15.509Z,101188.28
2023-02-06T18:20:43.842Z,101186.00
2023-02-06T18:23:11.031Z,101189.25
2023-02-06T18:25:43.617Z,101196.22
2023-02-06T18:28:13.945Z,101205.22
2023-02-06T18:30:44.698Z,101205.06
2023-02-06T18:33:13.039Z,101211.16
2023-02-06T18:35:40.785Z,101206.16
2023-02-06T18:38:10.073Z,101205.97
2023-02-06T18:40:38.730Z,101206.78
2023-02-06T18:43:05.862Z,101203.34
2023-02-06T18:45:34.752Z,101205.97
2023-02-06T18:48:02.559Z,101201.28
2023-02-06T18:50:29.840Z,101196.75
2023-02-06T18:52:56.378Z,101196.38
2023-02-06T18:55:23.887Z,101193.09
2023-02-06T18:57:51.016Z,101181.03
2023-02-06T19:00:18.650Z,101174.47
2023-02-06T19:02:48.744Z,101179.50
2023-02-06T19:05:15.460Z,101177.72
2023-02-06T19:07:42.552Z,101186.47
2023-02-06T19:10:16.567Z,101191.72
2023-02-06T19:12:43.200Z,101196.84
2023-02-06T19:15:10.331Z,101199.28
2023-02-06T19:17:37.251Z,101219.28
2023-02-06T19:20:04.204Z,101229.28
2023-02-06T19:22:31.077Z,101227.78
2023-02-06T19:24:57.962Z,101222.50
2023-02-06T19:27:26.436Z,101216.75
2023-02-06T19:29:53.260Z,101223.84
2023-02-06T19:32:19.998Z,101223.72
2023-02-06T19:34:46.727Z,101226.22
2023-02-06T19:37:13.913Z,101217.38
2023-02-06T19:39:40.895Z,101217.16
2023-02-06T19:42:09.468Z,101221.47
2023-02-06T19:44:36.992Z,101220.09
2023-02-06T19:47:03.914Z,101214.72
2023-02-06T19:49:31.041Z,101215.13
2023-02-06T19:51:57.809Z,101219.78
2023-02-06T19:54:24.529Z,101222.75
2023-02-06T19:56:51.148Z,101209.75
2023-02-06T19:59:21.797Z,101195.84
2023-02-06T20:01:54.096Z,101199.38
2023-02-06T20:04:22.368Z,101206.22
2023-02-06T20:06:51.382Z,101202.03
2023-02-06T20:09:19.010Z,101191.91
2023-02-06T20:11:45.929Z,101202.44
2023-02-06T20:14:13.613Z,101201.88
2023-02-06T20:16:43.948Z,101196.34
2023-02-06T20:19:16.512Z,101191.34
2023-02-06T20:21:44.948Z,101192.50
2023-02-06T20:24:14.080Z,101190.53
2023-02-06T20:26:44.663Z,101197.41
2023-02-06T20:29:18.970Z,101208.66
2023-02-06T20:31:46.915Z,101210.50
2023-02-06T20:34:13.875Z,101217.38
2023-02-06T20:36:42.110Z,101221.47
2023-02-06T20:39:10.946Z,101224.81
2023-02-06T20:41:37.669Z,101224.81
2023-02-06T20:44:05.122Z,101222.75
2023-02-06T20:46:32.882Z,101202.97
2023-02-06T20:49:01.110Z,101196.16
2023-02-06T20:51:28.654Z,101187.00
2023-02-06T20:53:56.182Z,101179.38
2023-02-06T20:56:23.618Z,101196.81
2023-02-06T20:58:51.662Z,101216.72
2023-02-06T21:01:24.941Z,101226.03
2023-02-06T21:03:52.911Z,101229.91
2023-02-06T21:06:21.564Z,101235.03
2023-02-06T21:08:50.867Z,101232.13
2023-02-06T21:11:17.659Z,101236.06
2023-02-06T21:13:45.842Z,101238.72
2023-02-06T21:16:13.655Z,101244.00
2023-02-06T21:18:43.155Z,101250.03
2023-02-06T21:21:12.225Z,101254.19
2023-02-06T21:23:39.802Z,101227.84
2023-02-06T21:26:08.466Z,101229.13
2023-02-06T21:28:36.073Z,101227.69
2023-02-06T21:32:43.825Z,101232.16
2023-02-06T21:35:10.708Z,101244.16
2023-02-06T21:37:37.577Z,101246.03
2023-02-06T21:40:05.081Z,101251.00
2023-02-06T21:42:31.730Z,101261.38
2023-02-06T21:44:58.279Z,101283.53
2023-02-06T21:47:25.163Z,101281.28
2023-02-06T21:49:51.833Z,101286.44
2023-02-06T21:52:18.749Z,101279.09
2023-02-06T21:54:45.934Z,101278.75
2023-02-06T21:57:12.499Z,101275.94
2023-02-06T21:59:39.228Z,101283.22
2023-02-06T22:02:06.004Z,101284.41
2023-02-06T22:04:32.600Z,101279.03
2023-02-06T22:06:59.257Z,101283.47
2023-02-06T22:09:25.778Z,101294.50
2023-02-06T22:11:52.423Z,101301.44
2023-02-06T22:14:19.059Z,101299.81
2023-02-06T22:16:48.666Z,101305.00
2023-02-06T22:19:16.049Z,101308.59
2023-02-06T22:21:42.786Z,101300.13
2023-02-06T22:24:11.492Z,101301.94
2023-02-06T22:26:39.023Z,101296.97
2023-02-06T22:29:06.638Z,101306.41
2023-02-06T22:31:34.263Z,101318.56
2023-02-06T22:34:01.078Z,101312.66
2023-02-06T22:36:28.767Z,101309.81
2023-02-06T22:39:00.658Z,101302.16
2023-02-06T22:41:27.821Z,101299.34
2023-02-06T22:43:54.425Z,101307.13
2023-02-06T22:46:22.606Z,101310.81
2023-02-06T22:48:49.246Z,101315.38
2023-02-06T22:51:15.939Z,101322.19
2023-02-06T22:53:42.941Z,101329.22
2023-02-06T22:56:32.522Z,101335.25
2023-02-06T22:59:00.536Z,101336.84
2023-02-06T23:01:30.314Z,101341.13
2023-02-06T23:03:57.906Z,101335.97
2023-02-06T23:06:25.221Z,101334.50
2023-02-06T23:08:52.314Z,101334.66
2023-02-06T23:11:19.025Z,101339.91
2023-02-06T23:13:45.834Z,101328.56
2023-02-06T23:16:12.579Z,101320.72
2023-02-06T23:18:39.127Z,101321.84
2023-02-06T23:21:07.277Z,101323.59
2023-02-06T23:23:33.950Z,101323.41
2023-02-06T23:26:00.742Z,101332.28
2023-02-06T23:28:27.448Z,101323.50
2023-02-06T23:30:55.091Z,101341.00
2023-02-06T23:33:22.016Z,101346.56
2023-02-06T23:35:48.981Z,101352.69
2023-02-06T23:38:15.860Z,101340.75
2023-02-06T23:40:42.547Z,101340.25
2023-02-06T23:43:09.730Z,101342.69
2023-02-06T23:45:37.034Z,101344.56
2023-02-06T23:48:04.011Z,101350.63
2023-02-06T23:50:30.623Z,101353.03
2023-02-06T23:52:57.324Z,101353.13
2023-02-06T23:55:28.461Z,101351.53
2023-02-06T23:57:55.026Z,101350.63
